Time;durP1;ratioP1;P1;durP2;ratioP2;P2;SDS_P1;SDS_P2;PMS_P1;PMS_P2;Temp;Humidity;BMP_temperature;BMP_pressure;BME280_temperature;BME280_humidity;BME280_pressure;Samples;Min_cycle;Max_cycle;Signal;HPM_P1;HPM_P2
2020/12/26 00:01:28;;;;;;;13.02;9.23;;;;;;;;;;4998239;28;20041;-61
2020/12/26 00:03:54;;;;;;;15.25;10.52;;;;;;;;;;4996476;28;20049;-61
2020/12/26 00:06:20;;;;;;;18.08;9.88;;;;;;;;;;4997454;28;20125;-62
2020/12/26 00:08:46;;;;;;;18.98;10.57;;;;;;;;;;4996825;28;20602;-62
2020/12/26 00:11:13;;;;;;;14.15;9.35;;;;;;;;;;4997077;28;20038;-62
2020/12/26 00:13:38;;;;;;;13.98;8.60;;;;;;;;;;4997547;28;20035;-62
2020/12/26 00:16:05;;;;;;;14.00;9.93;;;;;;;;;;4996657;28;20037;-62
2020/12/26 00:18:31;;;;;;;15.90;8.43;;;;;;;;;;4996767;28;20029;-62
2020/12/26 00:20:57;;;;;;;10.82;7.40;;;;;;;;;;4996202;28;20051;-61
2020/12/26 00:23:22;;;;;;;17.83;7.93;;;;;;;;;;4997063;28;20117;-62
2020/12/26 00:25:47;;;;;;;10.20;7.30;;;;;;;;;;4997038;28;20030;-62
2020/12/26 00:28:13;;;;;;;12.15;7.25;;;;;;;;;;4992438;28;20113;-62
2020/12/26 00:30:38;;;;;;;13.05;7.47;;;;;;;;;;4996578;28;20050;-62
2020/12/26 00:33:03;;;;;;;12.80;7.00;;;;;;;;;;4995881;28;20097;-62
2020/12/26 00:35:29;;;;;;;13.40;7.80;;;;;;;;;;4995990;28;20041;-62
2020/12/26 00:37:54;;;;;;;14.95;7.57;;;;;;;;;;4996308;28;20445;-62
2020/12/26 00:40:20;;;;;;;15.25;7.85;;;;;;;;;;4996392;28;20042;-63
2020/12/26 00:42:45;;;;;;;9.30;6.63;;;;;;;;;;4996631;28;20416;-63
2020/12/26 00:45:10;;;;;;;8.55;6.22;;;;;;;;;;4996085;28;20052;-62
2020/12/26 00:47:36;;;;;;;10.77;6.28;;;;;;;;;;4996895;28;20164;-62
2020/12/26 00:50:02;;;;;;;12.95;7.07;;;;;;;;;;4997421;28;20104;-62
2020/12/26 00:52:29;;;;;;;14.63;7.10;;;;;;;;;;4992125;28;20030;-62
2020/12/26 00:54:55;;;;;;;14.30;7.30;;;;;;;;;;4995939;28;20041;-62
2020/12/26 00:57:20;;;;;;;11.05;6.53;;;;;;;;;;4996851;28;20600;-63
2020/12/26 00:59:45;;;;;;;9.90;6.65;;;;;;;;;;4996089;28;20125;-63
2020/12/26 01:02:11;;;;;;;14.38;9.40;;;;;;;;;;4995253;28;20046;-63
2020/12/26 01:04:36;;;;;;;14.48;9.38;;;;;;;;;;4995029;28;20087;-62
2020/12/26 01:07:02;;;;;;;18.42;11.80;;;;;;;;;;4996949;28;20484;-63
2020/12/26 01:09:27;;;;;;;15.95;10.20;;;;;;;;;;4991560;28;20034;-63
2020/12/26 01:11:52;;;;;;;17.90;9.02;;;;;;;;;;4995376;28;20434;-63
2020/12/26 01:14:18;;;;;;;14.10;8.65;;;;;;;;;;4996607;28;20109;-62
2020/12/26 01:16:49;;;;;;;14.43;8.38;;;;;;;;;;4995332;28;20511;-63
2020/12/26 01:19:15;;;;;;;14.85;8.75;;;;;;;;;;5002456;28;20090;-63
2020/12/26 01:21:40;;;;;;;12.80;8.23;;;;;;;;;;4995050;28;20497;-62
2020/12/26 01:24:05;;;;;;;12.95;9.05;;;;;;;;;;4990806;28;20031;-63
2020/12/26 01:26:31;;;;;;;12.65;8.20;;;;;;;;;;4996105;28;20044;-62
2020/12/26 01:28:56;;;;;;;15.68;9.82;;;;;;;;;;4995103;28;20045;-63
2020/12/26 01:31:22;;;;;;;18.75;9.88;;;;;;;;;;4998287;28;20484;-62
2020/12/26 01:33:47;;;;;;;15.68;9.63;;;;;;;;;;4995212;28;20477;-63
2020/12/26 01:36:13;;;;;;;15.65;10.63;;;;;;;;;;4995737;28;20092;-63
2020/12/26 01:38:39;;;;;;;17.73;9.52;;;;;;;;;;4996026;28;20041;-63
2020/12/26 01:41:05;;;;;;;20.10;11.40;;;;;;;;;;4993778;28;20038;-63
2020/12/26 01:43:30;;;;;;;18.85;11.27;;;;;;;;;;4996375;28;20053;-62
2020/12/26 01:45:55;;;;;;;18.85;10.65;;;;;;;;;;4994444;28;20102;-62
2020/12/26 01:48:21;;;;;;;15.73;10.82;;;;;;;;;;4995205;28;20231;-63
2020/12/26 01:50:46;;;;;;;15.90;9.90;;;;;;;;;;4997463;28;20025;-62
2020/12/26 01:53:12;;;;;;;17.05;10.80;;;;;;;;;;4995464;28;20757;-62
2020/12/26 01:55:40;;;;;;;19.30;11.85;;;;;;;;;;4995756;28;20034;-62
2020/12/26 01:58:12;;;;;;;15.13;10.27;;;;;;;;;;4994161;28;20061;-62
2020/12/26 02:00:37;;;;;;;15.18;10.88;;;;;;;;;;4995049;28;20532;-63
2020/12/26 02:03:03;;;;;;;17.50;10.55;;;;;;;;;;4994346;28;20030;-62
2020/12/26 02:05:28;;;;;;;17.58;11.15;;;;;;;;;;4995811;28;20033;-62
2020/12/26 02:07:54;;;;;;;16.10;10.20;;;;;;;;;;5009646;28;20034;-62
2020/12/26 02:10:19;;;;;;;15.20;10.27;;;;;;;;;;4995490;28;20050;-62
2020/12/26 02:12:45;;;;;;;16.00;10.55;;;;;;;;;;4994502;28;20560;-62
2020/12/26 02:15:14;;;;;;;16.10;11.10;;;;;;;;;;4995284;28;20125;-62
2020/12/26 02:17:40;;;;;;;16.52;10.52;;;;;;;;;;4989970;28;20074;-62
2020/12/26 02:20:06;;;;;;;16.38;10.13;;;;;;;;;;4994819;28;20069;-62
2020/12/26 02:22:31;;;;;;;15.25;10.90;;;;;;;;;;4997216;28;20037;-62
2020/12/26 02:24:57;;;;;;;20.48;10.90;;;;;;;;;;4997304;28;20030;-62
2020/12/26 02:27:22;;;;;;;14.65;9.50;;;;;;;;;;4999357;28;20065;-62
2020/12/26 02:29:47;;;;;;;14.55;10.95;;;;;;;;;;4999086;28;20034;-62
2020/12/26 02:32:13;;;;;;;24.42;11.18;;;;;;;;;;4998318;28;20335;-62
2020/12/26 02:34:38;;;;;;;15.20;9.30;;;;;;;;;;4997496;28;20045;-62
2020/12/26 02:37:04;;;;;;;18.67;9.35;;;;;;;;;;4998317;28;20054;-62
2020/12/26 02:39:29;;;;;;;16.08;9.50;;;;;;;;;;4999664;28;20050;-62
2020/12/26 02:41:55;;;;;;;14.50;9.63;;;;;;;;;;4997006;28;20610;-62
2020/12/26 02:44:20;;;;;;;16.15;9.32;;;;;;;;;;4999420;28;20428;-62
2020/12/26 02:46:49;;;;;;;12.23;8.27;;;;;;;;;;4998638;28;20169;-62
2020/12/26 02:49:14;;;;;;;15.75;9.18;;;;;;;;;;4999094;28;20146;-62
2020/12/26 02:51:39;;;;;;;13.18;8.80;;;;;;;;;;4994096;28;20121;-62
2020/12/26 02:54:05;;;;;;;16.30;8.82;;;;;;;;;;4997858;28;20034;-62
2020/12/26 02:56:30;;;;;;;19.05;9.90;;;;;;;;;;4999289;28;20045;-62
2020/12/26 02:58:56;;;;;;;16.60;10.63;;;;;;;;;;4996075;28;20342;-62
2020/12/26 03:01:21;;;;;;;14.52;9.32;;;;;;;;;;4997664;28;20120;-62
2020/12/26 03:03:46;;;;;;;14.93;9.95;;;;;;;;;;4998114;28;20040;-62
2020/12/26 03:06:12;;;;;;;16.20;9.88;;;;;;;;;;4998072;28;20045;-62
2020/12/26 03:08:53;;;;;;;15.02;11.05;;;;;;;;;;4993667;28;22669;-62
2020/12/26 03:11:21;;;;;;;16.15;10.45;;;;;;;;;;4996858;28;20054;-62
2020/12/26 03:13:46;;;;;;;22.35;10.35;;;;;;;;;;4994082;28;20048;-62
2020/12/26 03:16:12;;;;;;;15.50;10.25;;;;;;;;;;4998305;28;20457;-61
2020/12/26 03:18:37;;;;;;;19.23;12.10;;;;;;;;;;4998720;28;20049;-61
2020/12/26 03:21:02;;;;;;;20.05;11.18;;;;;;;;;;4997495;28;20417;-61
2020/12/26 03:23:28;;;;;;;15.55;11.02;;;;;;;;;;4993541;28;20038;-61
2020/12/26 03:25:53;;;;;;;21.67;12.50;;;;;;;;;;4997370;28;20049;-61
2020/12/26 03:28:19;;;;;;;18.90;12.20;;;;;;;;;;4999030;28;20057;-61
2020/12/26 03:30:44;;;;;;;17.60;11.85;;;;;;;;;;4997973;28;20168;-61
2020/12/26 03:33:09;;;;;;;19.45;12.30;;;;;;;;;;4996242;28;20030;-61
2020/12/26 03:35:35;;;;;;;22.65;13.35;;;;;;;;;;4997729;28;20073;-61
2020/12/26 03:38:00;;;;;;;18.38;12.30;;;;;;;;;;4996713;28;20052;-61
2020/12/26 03:40:25;;;;;;;19.08;13.18;;;;;;;;;;4997041;28;20031;-61
2020/12/26 03:42:51;;;;;;;18.75;12.23;;;;;;;;;;4996321;28;20556;-61
2020/12/26 03:45:16;;;;;;;18.20;11.63;;;;;;;;;;4998556;28;20052;-61
2020/12/26 03:47:42;;;;;;;18.73;11.18;;;;;;;;;;4997281;28;20496;-61
2020/12/26 03:50:07;;;;;;;16.00;11.00;;;;;;;;;;4995569;28;20040;-61
2020/12/26 03:52:32;;;;;;;17.80;11.38;;;;;;;;;;4998131;28;20116;-61
2020/12/26 03:54:57;;;;;;;16.85;12.07;;;;;;;;;;4996209;28;20422;-61
2020/12/26 03:57:23;;;;;;;22.77;11.68;;;;;;;;;;4997920;28;20038;-61
2020/12/26 03:59:48;;;;;;;16.80;11.68;;;;;;;;;;4995192;28;20030;-61
2020/12/26 04:02:14;;;;;;;18.67;12.52;;;;;;;;;;4997534;28;20400;-61
2020/12/26 04:04:39;;;;;;;19.70;12.48;;;;;;;;;;4997463;28;20468;-61
2020/12/26 04:07:04;;;;;;;23.15;12.35;;;;;;;;;;4996631;28;20026;-61
2020/12/26 04:09:30;;;;;;;15.98;11.45;;;;;;;;;;4997151;28;20056;-61
2020/12/26 04:11:56;;;;;;;15.05;11.70;;;;;;;;;;4996466;28;20124;-61
2020/12/26 04:14:21;;;;;;;22.05;12.27;;;;;;;;;;4997265;28;20074;-61
2020/12/26 04:16:46;;;;;;;20.02;12.45;;;;;;;;;;4997250;28;20468;-61
2020/12/26 04:19:12;;;;;;;17.55;11.52;;;;;;;;;;4995126;28;20065;-61
2020/12/26 04:21:37;;;;;;;18.77;10.82;;;;;;;;;;4995112;28;20034;-62
2020/12/26 04:24:02;;;;;;;17.65;11.23;;;;;;;;;;4995843;28;20161;-62
2020/12/26 04:26:28;;;;;;;16.42;11.10;;;;;;;;;;4994683;28;20127;-61
2020/12/26 04:28:53;;;;;;;17.77;11.05;;;;;;;;;;4996525;28;20369;-62
2020/12/26 04:31:19;;;;;;;15.18;10.80;;;;;;;;;;4997181;28;20409;-62
2020/12/26 04:33:45;;;;;;;16.58;12.07;;;;;;;;;;4996850;28;20029;-62
2020/12/26 04:36:11;;;;;;;20.40;12.50;;;;;;;;;;4992937;28;20073;-62
2020/12/26 04:38:39;;;;;;;18.05;12.20;;;;;;;;;;4996760;28;20064;-62
2020/12/26 04:41:05;;;;;;;16.02;11.25;;;;;;;;;;4995914;28;20092;-62
2020/12/26 04:43:30;;;;;;;15.48;11.30;;;;;;;;;;4996817;28;20029;-62
2020/12/26 04:45:57;;;;;;;17.35;11.52;;;;;;;;;;4995471;28;20030;-62
2020/12/26 04:48:25;;;;;;;17.92;12.10;;;;;;;;;;4996862;28;20061;-62
2020/12/26 04:51:04;;;;;;;15.68;11.85;;;;;;;;;;5000046;28;20408;-62
2020/12/26 04:53:32;;;;;;;33.05;13.77;;;;;;;;;;4994786;28;20057;-62
2020/12/26 04:56:01;;;;;;;18.92;12.60;;;;;;;;;;4990637;28;20038;-62
2020/12/26 04:58:28;;;;;;;23.10;12.43;;;;;;;;;;4996744;28;20040;-62
2020/12/26 05:00:53;;;;;;;17.73;12.60;;;;;;;;;;4995434;28;20729;-62
2020/12/26 05:03:22;;;;;;;19.10;11.57;;;;;;;;;;4995281;28;20045;-62
2020/12/26 05:05:48;;;;;;;16.55;11.25;;;;;;;;;;4995930;28;20025;-62
2020/12/26 05:08:15;;;;;;;20.40;12.38;;;;;;;;;;4996234;28;20092;-62
2020/12/26 05:10:42;;;;;;;16.20;11.10;;;;;;;;;;4993061;28;20093;-62
2020/12/26 05:13:10;;;;;;;14.48;11.38;;;;;;;;;;4994641;28;20030;-62
2020/12/26 05:15:36;;;;;;;19.10;12.13;;;;;;;;;;4994701;28;20049;-62
2020/12/26 05:18:02;;;;;;;19.92;11.75;;;;;;;;;;4992319;28;20053;-62
2020/12/26 05:20:28;;;;;;;17.58;11.88;;;;;;;;;;4994974;28;20072;-62
2020/12/26 05:23:13;;;;;;;18.38;12.02;;;;;;;;;;4991028;28;20490;-62
2020/12/26 05:25:50;;;;;;;18.45;12.10;;;;;;;;;;4992750;28;20568;-62
2020/12/26 05:28:25;;;;;;;20.27;13.60;;;;;;;;;;4994003;28;20065;-62
2020/12/26 05:30:52;;;;;;;20.13;11.70;;;;;;;;;;4994714;28;20033;-62
2020/12/26 05:33:21;;;;;;;19.90;12.13;;;;;;;;;;4984890;28;20073;-62
2020/12/26 05:35:51;;;;;;;18.52;12.45;;;;;;;;;;4991361;28;20373;-62
2020/12/26 05:38:21;;;;;;;19.33;12.43;;;;;;;;;;4993413;28;20085;-62
2020/12/26 05:40:56;;;;;;;21.73;13.80;;;;;;;;;;4991804;28;20119;-62
2020/12/26 05:43:26;;;;;;;18.23;11.48;;;;;;;;;;4993321;28;20132;-62
2020/12/26 05:45:53;;;;;;;17.25;12.23;;;;;;;;;;5007246;28;20633;-62
2020/12/26 05:48:21;;;;;;;27.77;13.13;;;;;;;;;;4993582;28;20038;-62
2020/12/26 05:50:50;;;;;;;17.25;12.30;;;;;;;;;;4992402;28;20372;-62
2020/12/26 05:53:16;;;;;;;21.58;13.02;;;;;;;;;;4978267;28;20038;-62
2020/12/26 05:55:46;;;;;;;22.17;12.43;;;;;;;;;;4994010;28;20041;-62
2020/12/26 05:58:18;;;;;;;21.23;13.32;;;;;;;;;;4993768;28;20065;-62
2020/12/26 06:00:44;;;;;;;18.75;12.45;;;;;;;;;;4993285;28;20461;-62
2020/12/26 06:03:25;;;;;;;26.42;13.40;;;;;;;;;;4994995;28;20034;-62
2020/12/26 06:05:58;;;;;;;;;;;;;;;;;;4991620;28;20030;-62
2020/12/26 06:08:24;;;;;;;18.10;11.48;;;;;;;;;;4995568;28;19914;-62
2020/12/26 06:10:56;;;;;;;20.42;11.90;;;;;;;;;;4995534;28;20135;-62
2020/12/26 06:13:23;;;;;;;17.92;12.68;;;;;;;;;;4995042;28;20419;-61
2020/12/26 06:15:56;;;;;;;23.92;13.20;;;;;;;;;;4993561;28;20413;-61
2020/12/26 06:18:24;;;;;;;20.67;12.73;;;;;;;;;;4995624;28;20030;-61
2020/12/26 06:20:53;;;;;;;25.23;13.75;;;;;;;;;;4994836;28;20034;-62
2020/12/26 06:23:22;;;;;;;22.48;13.23;;;;;;;;;;4996192;28;20045;-62
2020/12/26 06:25:50;;;;;;;17.02;13.00;;;;;;;;;;4994450;28;20044;-60
2020/12/26 06:28:25;;;;;;;16.45;12.73;;;;;;;;;;4995569;28;20034;-60
2020/12/26 06:30:53;;;;;;;20.88;12.90;;;;;;;;;;4994190;28;20033;-60
2020/12/26 06:33:22;;;;;;;19.45;12.65;;;;;;;;;;4995026;28;20046;-61
2020/12/26 06:35:49;;;;;;;17.88;12.48;;;;;;;;;;4995025;28;20029;-63
2020/12/26 06:38:17;;;;;;;20.13;14.13;;;;;;;;;;4993266;28;20355;-61
2020/12/26 06:41:06;;;;;;;18.13;12.75;;;;;;;;;;4994855;28;20019;-61
2020/12/26 06:43:48;;;;;;;20.65;14.20;;;;;;;;;;4985842;28;20042;-61
2020/12/26 06:46:13;;;;;;;20.35;13.27;;;;;;;;;;4995233;28;20042;-61
2020/12/26 06:48:39;;;;;;;18.65;12.60;;;;;;;;;;4994839;28;20038;-61
2020/12/26 06:51:29;;;;;;;18.98;12.90;;;;;;;;;;4994871;28;20623;-61
2020/12/26 06:54:01;;;;;;;22.83;12.57;;;;;;;;;;4993789;28;20413;-61
2020/12/26 06:56:35;;;;;;;18.88;13.13;;;;;;;;;;4996875;28;20060;-61
2020/12/26 06:59:03;;;;;;;22.02;12.77;;;;;;;;;;4990705;28;20070;-61
2020/12/26 07:01:29;;;;;;;18.75;12.35;;;;;;;;;;4996430;28;20025;-61
2020/12/26 07:04:07;;;;;;;20.58;12.15;;;;;;;;;;4994509;28;20050;-61
2020/12/26 07:06:56;;;;;;;21.35;12.50;;;;;;;;;;4994826;28;20476;-61
2020/12/26 07:09:36;;;;;;;18.95;12.45;;;;;;;;;;4996054;28;20046;-61
2020/12/26 07:12:03;;;;;;;16.13;11.55;;;;;;;;;;4994033;28;20117;-61
2020/12/26 07:14:38;;;;;;;20.98;11.82;;;;;;;;;;5001336;28;20034;-61
2020/12/26 07:17:23;;;;;;;22.05;12.85;;;;;;;;;;4993479;28;20684;-61
2020/12/26 07:19:51;;;;;;;17.40;12.23;;;;;;;;;;5007375;28;20057;-61
2020/12/26 07:22:22;;;;;;;20.95;12.68;;;;;;;;;;5000562;28;20045;-61
2020/12/26 07:25:04;;;;;;;20.50;13.32;;;;;;;;;;4997881;28;20443;-61
2020/12/26 07:27:30;;;;;;;18.10;11.82;;;;;;;;;;5000554;28;20041;-61
2020/12/26 07:29:57;;;;;;;19.13;12.77;;;;;;;;;;5002212;28;20036;-61
2020/12/26 07:32:42;;;;;;;19.67;12.73;;;;;;;;;;4999367;28;20084;-60
2020/12/26 07:35:20;;;;;;;21.92;12.43;;;;;;;;;;5010238;28;20035;-60
2020/12/26 07:37:46;;;;;;;26.30;13.32;;;;;;;;;;4995940;28;20029;-61
2020/12/26 07:40:19;;;;;;;18.98;13.80;;;;;;;;;;4998119;28;20030;-61
2020/12/26 07:42:45;;;;;;;18.13;12.63;;;;;;;;;;5000881;28;20026;-60
2020/12/26 07:45:12;;;;;;;18.83;13.13;;;;;;;;;;4998484;28;20053;-60
2020/12/26 07:47:41;;;;;;;17.60;11.55;;;;;;;;;;5000460;28;20038;-61
2020/12/26 07:50:07;;;;;;;16.92;11.70;;;;;;;;;;4998105;28;20023;-61
2020/12/26 07:52:33;;;;;;;17.63;11.55;;;;;;;;;;5000318;28;20050;-61
2020/12/26 07:54:59;;;;;;;17.48;12.52;;;;;;;;;;4996873;28;20166;-61
2020/12/26 07:57:25;;;;;;;22.15;13.43;;;;;;;;;;5000469;28;20034;-61
2020/12/26 07:59:51;;;;;;;16.10;12.73;;;;;;;;;;4999066;28;20070;-61
2020/12/26 08:02:16;;;;;;;21.52;14.05;;;;;;;;;;4999979;28;20038;-62
2020/12/26 08:04:43;;;;;;;16.88;12.70;;;;;;;;;;4997892;28;20042;-61
2020/12/26 08:07:11;;;;;;;21.13;13.70;;;;;;;;;;4997683;28;20679;-62
2020/12/26 08:09:36;;;;;;;19.85;12.35;;;;;;;;;;4999476;28;20469;-61
2020/12/26 08:12:06;;;;;;;18.73;12.32;;;;;;;;;;4997651;28;20494;-61
2020/12/26 08:14:32;;;;;;;20.27;12.82;;;;;;;;;;4995967;28;20034;-61
2020/12/26 08:16:58;;;;;;;20.15;13.27;;;;;;;;;;4995735;28;20159;-61
2020/12/26 08:19:24;;;;;;;19.60;14.23;;;;;;;;;;4997177;28;20950;-61
2020/12/26 08:21:56;;;;;;;22.38;13.30;;;;;;;;;;4997744;28;20110;-61
2020/12/26 08:24:22;;;;;;;14.85;11.60;;;;;;;;;;4996688;28;20138;-61
2020/12/26 08:26:47;;;;;;;19.75;13.10;;;;;;;;;;4998498;28;20144;-62
2020/12/26 08:29:15;;;;;;;16.25;12.30;;;;;;;;;;4998784;28;20100;-61
2020/12/26 08:31:44;;;;;;;18.27;13.50;;;;;;;;;;4998058;28;20593;-61
2020/12/26 08:34:17;;;;;;;23.52;13.90;;;;;;;;;;4996412;28;20041;-61
2020/12/26 08:36:59;;;;;;;23.13;12.93;;;;;;;;;;4997398;28;20026;-61
2020/12/26 08:39:25;;;;;;;19.10;12.85;;;;;;;;;;4997995;28;20578;-61
2020/12/26 08:41:53;;;;;;;24.38;13.35;;;;;;;;;;4995412;28;20572;-61
2020/12/26 08:44:19;;;;;;;22.70;13.40;;;;;;;;;;4998880;28;20030;-61
2020/12/26 08:46:46;;;;;;;21.25;12.80;;;;;;;;;;4998083;28;20553;-61
2020/12/26 08:49:13;;;;;;;22.00;13.40;;;;;;;;;;4997740;28;20473;-61
2020/12/26 08:51:43;;;;;;;23.08;13.77;;;;;;;;;;4997506;28;20066;-61
2020/12/26 08:54:37;;;;;;;20.70;12.88;;;;;;;;;;4996514;28;20038;-61
2020/12/26 08:57:17;;;;;;;20.20;12.30;;;;;;;;;;4983237;28;20062;-61
2020/12/26 08:59:43;;;;;;;16.08;12.30;;;;;;;;;;4997500;28;20026;-61
2020/12/26 09:02:11;;;;;;;20.23;12.00;;;;;;;;;;4998216;28;20104;-62
2020/12/26 09:04:36;;;;;;;18.20;12.75;;;;;;;;;;4996725;28;20095;-61
2020/12/26 09:07:02;;;;;;;19.42;12.40;;;;;;;;;;4990231;28;20043;-62
2020/12/26 09:09:29;;;;;;;16.77;12.30;;;;;;;;;;4998019;28;20049;-61
2020/12/26 09:12:03;;;;;;;22.52;12.73;;;;;;;;;;4997543;28;20061;-61
2020/12/26 09:14:28;;;;;;;22.60;12.90;;;;;;;;;;4999217;28;20492;-60
2020/12/26 09:16:58;;;;;;;16.98;12.68;;;;;;;;;;4997050;28;20030;-60
2020/12/26 09:19:25;;;;;;;18.52;12.30;;;;;;;;;;4998555;28;20075;-60
2020/12/26 09:21:50;;;;;;;17.42;13.38;;;;;;;;;;4995749;28;20038;-59
2020/12/26 09:24:20;;;;;;;22.75;12.95;;;;;;;;;;4997944;28;20351;-61
2020/12/26 09:26:46;;;;;;;16.23;12.35;;;;;;;;;;4992751;28;20036;-60
2020/12/26 09:29:24;;;;;;;18.33;12.30;;;;;;;;;;4993953;28;20488;-60
2020/12/26 09:31:51;;;;;;;22.58;12.55;;;;;;;;;;4991448;28;20050;-60
2020/12/26 09:34:21;;;;;;;16.63;11.90;;;;;;;;;;4996594;28;20038;-60
2020/12/26 09:36:47;;;;;;;18.90;13.18;;;;;;;;;;4997790;28;20034;-60
2020/12/26 09:39:13;;;;;;;18.90;14.63;;;;;;;;;;4997165;28;20034;-60
2020/12/26 09:41:48;;;;;;;22.67;13.57;;;;;;;;;;4996312;28;20037;-64
2020/12/26 09:44:14;;;;;;;15.85;11.68;;;;;;;;;;4996525;28;20040;-65
2020/12/26 09:46:40;;;;;;;21.33;13.35;;;;;;;;;;4996233;28;20029;-65
2020/12/26 09:49:06;;;;;;;21.08;14.05;;;;;;;;;;4995379;28;20135;-65
2020/12/26 09:51:32;;;;;;;20.02;12.50;;;;;;;;;;4993763;28;20085;-66
2020/12/26 09:53:57;;;;;;;22.48;12.52;;;;;;;;;;4991232;28;20462;-66
2020/12/26 09:56:23;;;;;;;21.35;11.70;;;;;;;;;;4998141;28;20613;-66
2020/12/26 09:58:48;;;;;;;16.73;12.18;;;;;;;;;;4993463;28;20065;-67
2020/12/26 10:01:14;;;;;;;21.75;12.20;;;;;;;;;;4995726;28;20042;-68
2020/12/26 10:03:39;;;;;;;15.70;12.23;;;;;;;;;;4995740;28;20051;-67
2020/12/26 10:06:11;;;;;;;21.80;12.57;;;;;;;;;;4993181;28;20045;-67
2020/12/26 10:08:37;;;;;;;24.15;13.35;;;;;;;;;;4984284;28;20450;-67
2020/12/26 10:11:02;;;;;;;17.65;12.57;;;;;;;;;;4992306;28;20066;-66
2020/12/26 10:13:27;;;;;;;19.08;12.85;;;;;;;;;;4993115;28;20117;-66
2020/12/26 10:15:53;;;;;;;19.63;12.93;;;;;;;;;;4991996;28;20374;-67
2020/12/26 10:18:18;;;;;;;18.27;11.88;;;;;;;;;;4994025;28;20065;-66
2020/12/26 10:20:43;;;;;;;17.42;11.98;;;;;;;;;;4994948;28;20036;-66
2020/12/26 10:23:09;;;;;;;21.20;12.13;;;;;;;;;;4990159;28;20049;-67
2020/12/26 10:25:35;;;;;;;16.15;12.02;;;;;;;;;;4992540;28;20655;-66
2020/12/26 10:28:01;;;;;;;16.05;11.70;;;;;;;;;;4992724;28;20109;-66
2020/12/26 10:30:26;;;;;;;16.15;12.15;;;;;;;;;;4994143;28;20109;-66
2020/12/26 10:32:51;;;;;;;18.90;12.23;;;;;;;;;;4991027;28;20509;-66
2020/12/26 10:35:18;;;;;;;15.18;12.05;;;;;;;;;;4988075;28;20123;-66
2020/12/26 10:37:43;;;;;;;18.05;11.73;;;;;;;;;;4993500;28;20867;-66
2020/12/26 10:40:08;;;;;;;18.50;12.48;;;;;;;;;;4994755;28;20117;-66
2020/12/26 10:42:34;;;;;;;16.05;11.80;;;;;;;;;;4995845;28;20124;-66
2020/12/26 10:45:00;;;;;;;16.50;11.75;;;;;;;;;;5000844;28;20030;-66
2020/12/26 10:47:25;;;;;;;16.10;11.32;;;;;;;;;;5001422;28;20683;-66
2020/12/26 10:49:51;;;;;;;15.38;11.05;;;;;;;;;;4999056;28;20425;-67
2020/12/26 10:52:19;;;;;;;16.15;11.18;;;;;;;;;;5000619;28;20045;-67
2020/12/26 10:54:44;;;;;;;16.67;11.02;;;;;;;;;;5000835;28;20131;-66
2020/12/26 10:57:10;;;;;;;20.95;12.45;;;;;;;;;;4999664;28;20058;-67
2020/12/26 10:59:35;;;;;;;19.55;11.63;;;;;;;;;;4999978;28;20042;-64
2020/12/26 11:02:02;;;;;;;18.38;12.77;;;;;;;;;;4997539;28;20465;-66
2020/12/26 11:04:27;;;;;;;15.68;10.77;;;;;;;;;;5000864;28;20104;-67
2020/12/26 11:06:53;;;;;;;16.70;10.70;;;;;;;;;;4999878;28;20113;-66
2020/12/26 11:09:18;;;;;;;16.33;11.27;;;;;;;;;;4996493;28;20053;-65
2020/12/26 11:11:51;;;;;;;16.17;10.70;;;;;;;;;;4999023;28;20029;-67
2020/12/26 11:14:17;;;;;;;20.40;10.80;;;;;;;;;;5000358;28;20381;-67
2020/12/26 11:16:50;;;;;;;19.73;10.48;;;;;;;;;;4998073;28;20041;-66
2020/12/26 11:19:16;;;;;;;12.50;10.15;;;;;;;;;;4991884;28;20041;-65
2020/12/26 11:21:42;;;;;;;15.38;10.18;;;;;;;;;;4996034;28;20061;-64
2020/12/26 11:24:08;;;;;;;17.13;9.98;;;;;;;;;;4997993;28;20027;-66
2020/12/26 11:26:33;;;;;;;17.60;11.13;;;;;;;;;;4997241;28;20036;-67
2020/12/26 11:28:59;;;;;;;21.15;14.57;;;;;;;;;;4993076;28;20026;-67
2020/12/26 11:31:24;;;;;;;21.17;12.25;;;;;;;;;;5002175;28;20088;-65
2020/12/26 11:33:50;;;;;;;20.05;11.60;;;;;;;;;;4998770;28;20495;-66
2020/12/26 11:36:23;;;;;;;15.23;10.00;;;;;;;;;;5002498;28;20109;-66
2020/12/26 11:38:49;;;;;;;18.95;9.57;;;;;;;;;;4997514;28;20428;-67
2020/12/26 11:41:16;;;;;;;14.93;10.07;;;;;;;;;;4997098;28;20113;-66
2020/12/26 11:43:41;;;;;;;13.52;10.52;;;;;;;;;;4998693;28;20026;-65
2020/12/26 11:46:07;;;;;;;18.55;9.80;;;;;;;;;;4997758;28;20434;-66
2020/12/26 11:48:32;;;;;;;19.38;10.93;;;;;;;;;;4999986;28;20054;-66
2020/12/26 11:50:58;;;;;;;12.27;9.98;;;;;;;;;;5000898;28;20420;-66
2020/12/26 11:53:24;;;;;;;20.02;10.90;;;;;;;;;;4999048;28;20048;-67
2020/12/26 11:55:49;;;;;;;15.77;9.90;;;;;;;;;;4996416;28;20473;-66
2020/12/26 11:58:15;;;;;;;13.68;8.98;;;;;;;;;;4998477;28;20042;-65
2020/12/26 12:00:40;;;;;;;13.55;10.02;;;;;;;;;;4998754;28;20040;-66
2020/12/26 12:03:05;;;;;;;18.80;10.57;;;;;;;;;;4998577;28;20381;-67
2020/12/26 12:05:30;;;;;;;11.60;9.20;;;;;;;;;;5000255;28;20500;-66
2020/12/26 12:07:56;;;;;;;18.55;9.13;;;;;;;;;;4997765;28;20030;-65
2020/12/26 12:10:21;;;;;;;17.52;9.50;;;;;;;;;;4991639;28;20629;-66
2020/12/26 12:12:46;;;;;;;14.93;9.95;;;;;;;;;;4996989;28;20034;-66
2020/12/26 12:15:12;;;;;;;13.88;8.65;;;;;;;;;;4997869;28;20038;-65
2020/12/26 12:17:37;;;;;;;15.40;9.35;;;;;;;;;;4999130;28;20245;-65
2020/12/26 12:20:03;;;;;;;12.55;8.85;;;;;;;;;;4995196;28;20038;-66
2020/12/26 12:22:28;;;;;;;15.13;8.80;;;;;;;;;;4997969;28;20033;-66
2020/12/26 12:24:53;;;;;;;12.30;8.27;;;;;;;;;;4996569;28;20054;-66
2020/12/26 12:27:19;;;;;;;17.77;8.93;;;;;;;;;;4995869;28;20462;-66
2020/12/26 12:29:44;;;;;;;15.00;8.65;;;;;;;;;;4994952;28;20029;-65
2020/12/26 12:32:14;;;;;;;12.07;8.00;;;;;;;;;;4995894;28;20039;-66
2020/12/26 12:34:39;;;;;;;10.63;7.57;;;;;;;;;;4995185;28;20172;-66
2020/12/26 12:37:06;;;;;;;13.43;8.15;;;;;;;;;;4995949;28;20136;-67
2020/12/26 12:39:32;;;;;;;12.10;7.25;;;;;;;;;;4996505;28;20485;-67
2020/12/26 12:41:57;;;;;;;10.93;7.80;;;;;;;;;;4991312;28;20034;-66
2020/12/26 12:44:22;;;;;;;10.20;7.32;;;;;;;;;;4996393;28;20092;-66
2020/12/26 12:46:48;;;;;;;13.75;8.25;;;;;;;;;;4997086;28;20120;-66
2020/12/26 12:49:13;;;;;;;14.35;8.07;;;;;;;;;;4996747;28;20037;-66
2020/12/26 12:51:38;;;;;;;13.25;8.25;;;;;;;;;;4996192;28;20033;-66
2020/12/26 12:54:04;;;;;;;12.40;7.90;;;;;;;;;;4996343;28;20034;-67
2020/12/26 12:56:29;;;;;;;11.27;7.82;;;;;;;;;;4996794;28;20527;-67
2020/12/26 12:58:55;;;;;;;13.68;7.85;;;;;;;;;;4996289;28;20093;-66
2020/12/26 13:01:20;;;;;;;14.00;7.97;;;;;;;;;;4993768;28;20038;-66
2020/12/26 13:03:46;;;;;;;12.75;9.00;;;;;;;;;;4994812;28;20037;-66
2020/12/26 13:06:16;;;;;;;14.60;7.80;;;;;;;;;;4996797;28;20054;-63
2020/12/26 13:08:42;;;;;;;16.95;8.45;;;;;;;;;;4998636;28;20044;-65
2020/12/26 13:11:07;;;;;;;13.90;8.55;;;;;;;;;;4994941;28;20429;-65
2020/12/26 13:13:32;;;;;;;16.67;9.63;;;;;;;;;;4997674;28;20033;-65
2020/12/26 13:15:58;;;;;;;14.07;9.48;;;;;;;;;;4997032;28;20061;-65
2020/12/26 13:18:23;;;;;;;12.85;8.10;;;;;;;;;;4998087;28;20034;-65
2020/12/26 13:20:50;;;;;;;11.77;8.20;;;;;;;;;;4997467;28;20091;-65
2020/12/26 13:23:15;;;;;;;17.20;9.02;;;;;;;;;;4998320;28;20031;-64
2020/12/26 13:25:40;;;;;;;10.27;7.82;;;;;;;;;;4998565;28;20037;-65
2020/12/26 13:28:06;;;;;;;12.18;8.50;;;;;;;;;;4996033;28;20053;-66
2020/12/26 13:30:31;;;;;;;13.80;9.52;;;;;;;;;;4997652;28;20030;-64
2020/12/26 13:32:56;;;;;;;14.88;9.23;;;;;;;;;;4990422;28;20412;-66
2020/12/26 13:35:22;;;;;;;13.73;8.32;;;;;;;;;;4997307;28;20077;-66
2020/12/26 13:37:47;;;;;;;12.70;9.70;;;;;;;;;;4997100;28;20524;-66
2020/12/26 13:40:13;;;;;;;14.38;9.40;;;;;;;;;;4996201;28;20038;-65
2020/12/26 13:42:38;;;;;;;14.25;9.07;;;;;;;;;;4997469;28;20095;-66
2020/12/26 13:45:03;;;;;;;18.98;9.05;;;;;;;;;;4994432;28;20449;-65
2020/12/26 13:47:28;;;;;;;14.38;8.75;;;;;;;;;;4999535;28;20030;-65
2020/12/26 13:49:54;;;;;;;13.50;9.70;;;;;;;;;;4993950;28;20038;-65
2020/12/26 13:52:19;;;;;;;14.48;9.43;;;;;;;;;;4997833;28;20358;-65
2020/12/26 13:54:45;;;;;;;15.10;10.30;;;;;;;;;;4996955;28;20433;-64
2020/12/26 13:57:10;;;;;;;15.48;10.38;;;;;;;;;;4995963;28;20041;-65
2020/12/26 13:59:35;;;;;;;12.63;9.48;;;;;;;;;;4998230;28;20030;-66
2020/12/26 14:02:01;;;;;;;14.13;9.60;;;;;;;;;;4995707;28;20053;-65
2020/12/26 14:04:26;;;;;;;16.05;8.73;;;;;;;;;;4998423;28;20038;-65
2020/12/26 14:06:51;;;;;;;11.70;8.27;;;;;;;;;;4994411;28;20100;-65
2020/12/26 14:09:17;;;;;;;17.73;9.35;;;;;;;;;;4995616;28;20057;-65
2020/12/26 14:11:43;;;;;;;14.10;9.50;;;;;;;;;;4995532;28;20030;-65
2020/12/26 14:14:09;;;;;;;13.60;8.77;;;;;;;;;;4995527;28;20117;-65
2020/12/26 14:16:34;;;;;;;13.73;8.90;;;;;;;;;;4996111;28;20144;-65
2020/12/26 14:19:00;;;;;;;13.52;9.35;;;;;;;;;;4993438;28;20100;-65
2020/12/26 14:21:35;;;;;;;12.15;8.63;;;;;;;;;;4997070;28;20034;-65